sensor_id;sensor_type;location;lat;lon;timestamp;pressure;altitude;pressure_sealevel;temperature;humidity
63901;BME280;50538;53.482;10.294;2023-07-13T00:02:34;100801.94;;;17.77;88.21
63901;BME280;50538;53.482;10.294;2023-07-13T00:12:37;100807.75;;;17.68;86.74
63901;BME280;50538;53.482;10.294;2023-07-13T00:22:37;100796.00;;;17.56;86.52
63901;BME280;50538;53.482;10.294;2023-07-13T00:32:38;100803.28;;;17.42;84.86
63901;BME280;50538;53.482;10.294;2023-07-13T00:42:39;100804.72;;;17.25;83.45
63901;BME280;50538;53.482;10.294;2023-07-13T00:52:49;100799.75;;;17.08;85.68
63901;BME280;50538;53.482;10.294;2023-07-13T01:02:53;100805.94;;;16.89;83.99
63901;BME280;50538;53.482;10.294;2023-07-13T01:12:54;100796.88;;;16.77;84.90
63901;BME280;50538;53.482;10.294;2023-07-13T01:22:54;100795.41;;;16.68;83.36
63901;BME280;50538;53.482;10.294;2023-07-13T01:32:54;100807.56;;;16.57;85.67
63901;BME280;50538;53.482;10.294;2023-07-13T01:42:55;100808.97;;;16.46;89.58
63901;BME280;50538;53.482;10.294;2023-07-13T01:52:55;100804.81;;;16.37;89.54
63901;BME280;50538;53.482;10.294;2023-07-13T02:02:56;100807.69;;;16.29;91.14
63901;BME280;50538;53.482;10.294;2023-07-13T02:12:56;100808.88;;;16.20;92.42
63901;BME280;50538;53.482;10.294;2023-07-13T02:22:57;100811.91;;;16.10;94.61
63901;BME280;50538;53.482;10.294;2023-07-13T02:32:57;100814.13;;;16.00;95.90
63901;BME280;50538;53.482;10.294;2023-07-13T02:42:57;100819.22;;;15.88;97.62
63901;BME280;50538;53.482;10.294;2023-07-13T02:52:58;100813.41;;;15.78;96.95
63901;BME280;50538;53.482;10.294;2023-07-13T03:02:58;100819.53;;;15.72;95.57
63901;BME280;50538;53.482;10.294;2023-07-13T03:12:58;100821.00;;;15.68;95.48
63901;BME280;50538;53.482;10.294;2023-07-13T03:22:58;100828.78;;;15.63;93.46
63901;BME280;50538;53.482;10.294;2023-07-13T03:32:59;100811.25;;;15.61;93.90
63901;BME280;50538;53.482;10.294;2023-07-13T03:42:59;100827.53;;;15.59;92.75
63901;BME280;50538;53.482;10.294;2023-07-13T03:53:00;100831.84;;;15.60;93.70
63901;BME280;50538;53.482;10.294;2023-07-13T04:03:00;100835.16;;;15.62;95.18
63901;BME280;50538;53.482;10.294;2023-07-13T04:13:00;100830.50;;;15.77;96.05
63901;BME280;50538;53.482;10.294;2023-07-13T04:23:01;100832.41;;;15.90;96.07
63901;BME280;50538;53.482;10.294;2023-07-13T04:33:01;100832.31;;;16.11;95.61
63901;BME280;50538;53.482;10.294;2023-07-13T04:43:01;100832.88;;;16.41;96.24
63901;BME280;50538;53.482;10.294;2023-07-13T04:53:02;100818.84;;;16.46;96.49
63901;BME280;50538;53.482;10.294;2023-07-13T05:03:03;100825.97;;;16.80;95.25
63901;BME280;50538;53.482;10.294;2023-07-13T05:13:03;100831.13;;;17.14;93.37
63901;BME280;50538;53.482;10.294;2023-07-13T05:23:03;100832.34;;;17.51;92.62
63901;BME280;50538;53.482;10.294;2023-07-13T05:33:04;100862.28;;;17.81;89.49
63901;BME280;50538;53.482;10.294;2023-07-13T05:43:04;100869.00;;;18.04;87.37
63901;BME280;50538;53.482;10.294;2023-07-13T05:53:04;100867.69;;;18.33;85.75
63901;BME280;50538;53.482;10.294;2023-07-13T06:03:06;100872.44;;;18.75;83.34
63901;BME280;50538;53.482;10.294;2023-07-13T06:13:06;100882.91;;;18.59;84.59
63901;BME280;50538;53.482;10.294;2023-07-13T06:23:07;100876.28;;;18.93;86.35
63901;BME280;50538;53.482;10.294;2023-07-13T06:33:07;100877.66;;;19.58;81.35
63901;BME280;50538;53.482;10.294;2023-07-13T06:43:08;100880.44;;;19.88;78.82
63901;BME280;50538;53.482;10.294;2023-07-13T06:53:09;100879.63;;;20.06;76.51
63901;BME280;50538;53.482;10.294;2023-07-13T07:03:09;100892.00;;;20.13;76.62
63901;BME280;50538;53.482;10.294;2023-07-13T07:13:10;100898.31;;;20.26;74.55
63901;BME280;50538;53.482;10.294;2023-07-13T07:23:10;100906.09;;;20.15;76.02
63901;BME280;50538;53.482;10.294;2023-07-13T07:33:10;100916.19;;;20.20;75.41
63901;BME280;50538;53.482;10.294;2023-07-13T07:43:12;100904.81;;;20.55;74.71
63901;BME280;50538;53.482;10.294;2023-07-13T07:53:12;100897.06;;;21.18;72.40
63901;BME280;50538;53.482;10.294;2023-07-13T08:03:13;100906.63;;;21.56;70.12
63901;BME280;50538;53.482;10.294;2023-07-13T08:13:13;100903.69;;;21.57;69.05
63901;BME280;50538;53.482;10.294;2023-07-13T08:23:13;100897.84;;;22.07;67.89
63901;BME280;50538;53.482;10.294;2023-07-13T08:33:15;100896.13;;;22.41;66.06
63901;BME280;50538;53.482;10.294;2023-07-13T08:43:17;100892.50;;;22.64;65.75
63901;BME280;50538;53.482;10.294;2023-07-13T08:53:19;100900.69;;;22.81;64.46
63901;BME280;50538;53.482;10.294;2023-07-13T09:03:22;100898.88;;;22.58;62.82
63901;BME280;50538;53.482;10.294;2023-07-13T09:13:32;100891.72;;;23.25;62.05
63901;BME280;50538;53.482;10.294;2023-07-13T09:23:38;100902.22;;;23.05;61.36
63901;BME280;50538;53.482;10.294;2023-07-13T09:33:39;100894.75;;;23.46;61.78
63901;BME280;50538;53.482;10.294;2023-07-13T09:44:00;100893.19;;;24.22;55.83
63901;BME280;50538;53.482;10.294;2023-07-13T09:54:00;100875.19;;;24.86;55.25
63901;BME280;50538;53.482;10.294;2023-07-13T10:04:10;100888.31;;;24.94;54.26
63901;BME280;50538;53.482;10.294;2023-07-13T10:14:17;100891.69;;;24.31;54.88
63901;BME280;50538;53.482;10.294;2023-07-13T10:24:23;100881.38;;;24.55;52.77
63901;BME280;50538;53.482;10.294;2023-07-13T10:34:24;100884.31;;;25.02;51.33
63901;BME280;50538;53.482;10.294;2023-07-13T10:44:28;100879.69;;;25.66;47.68
63901;BME280;50538;53.482;10.294;2023-07-13T10:54:32;100884.56;;;25.00;49.09
63901;BME280;50538;53.482;10.294;2023-07-13T11:04:47;100898.97;;;24.08;51.84
63901;BME280;50538;53.482;10.294;2023-07-13T11:25:02;100887.19;;;25.49;45.93
63901;BME280;50538;53.482;10.294;2023-07-13T11:35:25;100895.84;;;25.46;45.82
63901;BME280;50538;53.482;10.294;2023-07-13T11:45:26;100894.66;;;25.32;46.38
63901;BME280;50538;53.482;10.294;2023-07-13T11:55:28;100902.19;;;25.62;45.07
63901;BME280;50538;53.482;10.294;2023-07-13T12:05:29;100899.22;;;25.63;46.22
63901;BME280;50538;53.482;10.294;2023-07-13T12:15:43;100893.94;;;25.84;44.67
63901;BME280;50538;53.482;10.294;2023-07-13T12:25:43;100880.50;;;26.19;45.52
63901;BME280;50538;53.482;10.294;2023-07-13T12:35:47;100893.31;;;26.19;42.80
63901;BME280;50538;53.482;10.294;2023-07-13T12:46:20;100986.69;;;23.97;58.57
63901;BME280;50538;53.482;10.294;2023-07-13T12:56:26;101044.44;;;21.56;68.50
63901;BME280;50538;53.482;10.294;2023-07-13T13:06:29;101068.09;;;20.94;71.56
63901;BME280;50538;53.482;10.294;2023-07-13T13:16:32;101070.44;;;20.72;72.52
63901;BME280;50538;53.482;10.294;2023-07-13T13:26:33;101075.38;;;21.11;75.02
63901;BME280;50538;53.482;10.294;2023-07-13T13:36:34;101074.84;;;21.39;73.68
63901;BME280;50538;53.482;10.294;2023-07-13T13:46:34;101060.06;;;21.54;72.29
63901;BME280;50538;53.482;10.294;2023-07-13T13:56:34;101080.75;;;21.60;69.14
63901;BME280;50538;53.482;10.294;2023-07-13T14:06:34;101078.13;;;21.41;65.76
63901;BME280;50538;53.482;10.294;2023-07-13T14:16:35;101065.88;;;21.09;66.76
63901;BME280;50538;53.482;10.294;2023-07-13T14:26:37;101059.78;;;20.95;68.18
63901;BME280;50538;53.482;10.294;2023-07-13T14:36:42;101066.81;;;20.96;70.23
63901;BME280;50538;53.482;10.294;2023-07-13T14:46:46;101073.78;;;21.04;71.62
63901;BME280;50538;53.482;10.294;2023-07-13T14:56:47;101070.13;;;21.17;70.89
63901;BME280;50538;53.482;10.294;2023-07-13T15:07:01;101074.03;;;21.21;69.01
63901;BME280;50538;53.482;10.294;2023-07-13T15:17:02;101070.84;;;21.42;68.36
63901;BME280;50538;53.482;10.294;2023-07-13T15:27:04;101061.63;;;21.61;66.40
63901;BME280;50538;53.482;10.294;2023-07-13T15:37:14;101067.91;;;21.85;64.85
63901;BME280;50538;53.482;10.294;2023-07-13T15:47:15;101062.84;;;23.34;60.55
63901;BME280;50538;53.482;10.294;2023-07-13T15:57:16;101061.31;;;23.38;57.75
63901;BME280;50538;53.482;10.294;2023-07-13T16:07:17;101063.50;;;22.26;58.76
63901;BME280;50538;53.482;10.294;2023-07-13T16:17:17;101072.84;;;21.88;60.73
63901;BME280;50538;53.482;10.294;2023-07-13T16:27:18;101072.63;;;21.90;60.29
63901;BME280;50538;53.482;10.294;2023-07-13T16:37:26;101082.38;;;21.91;59.12
63901;BME280;50538;53.482;10.294;2023-07-13T16:47:28;101075.75;;;22.28;59.72
63901;BME280;50538;53.482;10.294;2023-07-13T16:57:32;101072.84;;;24.79;52.06
63901;BME280;50538;53.482;10.294;2023-07-13T17:07:33;101080.34;;;25.64;48.13
63901;BME280;50538;53.482;10.294;2023-07-13T17:17:34;101077.00;;;25.79;47.68
63901;BME280;50538;53.482;10.294;2023-07-13T17:27:36;101088.72;;;26.17;46.33
63901;BME280;50538;53.482;10.294;2023-07-13T17:37:37;101086.66;;;27.18;44.45
63901;BME280;50538;53.482;10.294;2023-07-13T17:47:37;101094.69;;;26.46;46.99
63901;BME280;50538;53.482;10.294;2023-07-13T17:57:40;101098.38;;;27.19;43.74
63901;BME280;50538;53.482;10.294;2023-07-13T18:07:41;101102.63;;;27.87;43.02
63901;BME280;50538;53.482;10.294;2023-07-13T18:17:47;101106.91;;;27.58;42.43
63901;BME280;50538;53.482;10.294;2023-07-13T18:27:48;101115.81;;;26.70;43.78
63901;BME280;50538;53.482;10.294;2023-07-13T18:37:49;101125.34;;;24.85;46.81
63901;BME280;50538;53.482;10.294;2023-07-13T18:47:54;101133.44;;;23.27;53.07
63901;BME280;50538;53.482;10.294;2023-07-13T18:57:55;101135.56;;;21.97;56.57
63901;BME280;50538;53.482;10.294;2023-07-13T19:08:00;101158.38;;;20.98;58.76
63901;BME280;50538;53.482;10.294;2023-07-13T19:18:09;101174.81;;;20.28;59.90
63901;BME280;50538;53.482;10.294;2023-07-13T19:28:25;101190.00;;;19.78;61.57
63901;BME280;50538;53.482;10.294;2023-07-13T19:38:26;101190.97;;;19.52;63.54
63901;BME280;50538;53.482;10.294;2023-07-13T19:48:27;101197.28;;;19.13;65.14
63901;BME280;50538;53.482;10.294;2023-07-13T19:58:27;101205.19;;;18.81;66.54
63901;BME280;50538;53.482;10.294;2023-07-13T20:08:28;101222.41;;;18.61;67.72
63901;BME280;50538;53.482;10.294;2023-07-13T20:18:30;101227.69;;;18.28;69.19
63901;BME280;50538;53.482;10.294;2023-07-13T20:28:30;101234.47;;;18.10;71.05
63901;BME280;50538;53.482;10.294;2023-07-13T20:38:31;101240.25;;;17.94;73.11
63901;BME280;50538;53.482;10.294;2023-07-13T20:48:40;101242.63;;;17.69;74.92
63901;BME280;50538;53.482;10.294;2023-07-13T20:58:45;101250.56;;;17.43;77.37
63901;BME280;50538;53.482;10.294;2023-07-13T21:08:47;101276.59;;;17.21;78.80
63901;BME280;50538;53.482;10.294;2023-07-13T21:18:48;101272.41;;;17.12;77.80
63901;BME280;50538;53.482;10.294;2023-07-13T21:28:49;101278.94;;;17.03;79.15
63901;BME280;50538;53.482;10.294;2023-07-13T21:38:56;101288.34;;;16.92;79.22
63901;BME280;50538;53.482;10.294;2023-07-13T21:48:58;101303.06;;;16.75;83.15
63901;BME280;50538;53.482;10.294;2023-07-13T21:58:58;101284.81;;;16.64;82.30
63901;BME280;50538;53.482;10.294;2023-07-13T22:08:59;101284.94;;;16.55;83.11
63901;BME280;50538;53.482;10.294;2023-07-13T22:19:05;101288.13;;;16.44;82.85
63901;BME280;50538;53.482;10.294;2023-07-13T22:29:21;101296.09;;;16.38;81.30
63901;BME280;50538;53.482;10.294;2023-07-13T22:39:24;101280.34;;;16.28;81.31
63901;BME280;50538;53.482;10.294;2023-07-13T22:49:28;101290.88;;;16.15;84.65
63901;BME280;50538;53.482;10.294;2023-07-13T22:59:29;101294.69;;;15.91;87.58
63901;BME280;50538;53.482;10.294;2023-07-13T23:09:31;101291.66;;;15.79;89.85
63901;BME280;50538;53.482;10.294;2023-07-13T23:19:33;101299.00;;;15.71;90.22
63901;BME280;50538;53.482;10.294;2023-07-13T23:29:34;101299.91;;;15.63;89.21
63901;BME280;50538;53.482;10.294;2023-07-13T23:39:34;101298.34;;;15.54;90.47
63901;BME280;50538;53.482;10.294;2023-07-13T23:49:34;101301.09;;;15.46;90.84
63901;BME280;50538;53.482;10.294;2023-07-13T23:59:36;101304.22;;;15.35;92.97
